Cosco Melbourne — V7IF5 — position and weather

sailwx.info

Track history (hours):
 
Tides and Currents Weather Stations Pressure Air Temp Water Temp Dewpoint Dewpoint Depression Visibility Wind Speed Wind Dir Waves Ship Positions

Cosco Melbourne

Last reported at 2016-Feb-11 04:27 UTC. Time now 2016-Feb-12 05:36 UTC.
Position N 22°13' E 119°59'.

Type: Ship (hazmat cat A). MMSI: 538002366.

Date/timePositionNaut miles runAvg speedWind from/ knotsBaromVisibWave heightAir tempDewpointWater temp
2016-Feb-11 04:27N 22°13' E 119°59'1617.7
2016-Feb-11 03:32N 22°26' E 120°08'1312.9
2016-Feb-11 02:33N 22°33' E 120°20'1 0.6
2016-Feb-11 01:33N 22°32' E 120°20'0 0.0
2016-Feb-11 00:32N 22°32' E 120°20'0 0.0
2016-Feb-10 23:33N 22°32' E 120°20'0 0.0
2016-Feb-10 22:33N 22°32' E 120°20'0 0.0
2016-Feb-10 21:33N 22°32' E 120°20'0 0.0
2016-Feb-10 20:33N 22°32' E 120°20'0 0.0
2016-Feb-10 19:33N 22°32' E 120°20'0 0.0
2016-Feb-10 18:33N 22°32' E 120°20'0 0.0
2016-Feb-10 17:33N 22°32' E 120°20'0 0.0
2016-Feb-10 16:33N 22°32' E 120°20'3 2.6
2016-Feb-10 15:33N 22°33' E 120°17'9 8.9
2016-Feb-10 14:33N 22°37' E 120°09'1818.2
2016-Feb-10 13:33N 22°54' E 120°02'43017.2
2016-Feb-09 12:33N 29°46' E 122°17'10 9.7
2016-Feb-09 11:31N 29°55' E 122°10'1212.6
2016-Feb-09 10:33N 29°58' E 121°56'4 4.1
2016-Feb-09 09:33N 29°56' E 121°52'0 0.0
2016-Feb-09 08:33N 29°56' E 121°52'0 0.0
2016-Feb-09 07:32N 29°56' E 121°52'0 0.0
2016-Feb-09 06:33N 29°56' E 121°52'0 0.0
2016-Feb-09 05:33N 29°56' E 121°52'0 0.0
2016-Feb-09 04:33N 29°56' E 121°52'2 2.1
2016-Feb-09 03:28N 29°57' E 121°54'910.0
2016-Feb-09 02:32N 29°55' E 122°05'1111.2
2016-Feb-09 01:33N 29°48' E 122°15'50 9.9
2016-Feb-08 20:28N 30°26' E 122°53'7011.4
2016-Feb-08 14:21N 31°15' E 121°56'1113.6
2016-Feb-08 13:32N 31°19' E 121°44'4 4.3
2016-Feb-08 12:32N 31°20' E 121°39'0 0.0
2016-Feb-08 11:32N 31°20' E 121°39'0 0.0
2016-Feb-08 10:33N 31°20' E 121°39'0 0.0
2016-Feb-08 09:33N 31°20' E 121°39'0 0.0
2016-Feb-08 08:29N 31°20' E 121°39'0 0.0
2016-Feb-08 07:33N 31°20' E 121°39'0 0.0
2016-Feb-08 06:33N 31°20' E 121°39'0 0.0
2016-Feb-08 05:33N 31°20' E 121°39'0 0.0
2016-Feb-08 04:32N 31°20' E 121°39'0 0.0
2016-Feb-08 03:32N 31°20' E 121°39'0 0.0
2016-Feb-08 02:31N 31°20' E 121°39'0 0.3
2016-Feb-08 01:32N 31°21' E 121°39'8 7.7
2016-Feb-08 00:33N 31°18' E 121°47'1312.7
2016-Feb-07 23:33N 31°15' E 122°02'  
2016-Feb-05 18:04N 30°35' E 123°01'3 6.0
2016-Feb-05 17:33N 30°32' E 123°01'48612.2
2016-Feb-04 01:32N 22°52' E 120°04'1717.0
2016-Feb-04 00:33N 22°37' E 120°11'8 8.0
2016-Feb-03 23:32N 22°33' E 120°19'0 0.0
2016-Feb-03 22:32N 22°33' E 120°19'0 0.0
2016-Feb-03 21:33N 22°33' E 120°19'0 0.1
2016-Feb-03 20:33N 22°33' E 120°19'0 0.1
2016-Feb-03 19:32N 22°33' E 120°19'0 0.0
2016-Feb-03 18:33N 22°33' E 120°19'0 0.0
2016-Feb-03 17:33N 22°33' E 120°19'0 0.0
2016-Feb-03 16:33N 22°33' E 120°19'0 0.0
2016-Feb-03 15:32N 22°33' E 120°19'2 2.4
2016-Feb-03 14:33N 22°33' E 120°17'4 3.9
2016-Feb-03 13:33N 22°31' E 120°13'7 6.4
2016-Feb-03 12:31N 22°24' E 120°13'8 7.4
2016-Feb-03 11:29N 22°16' E 120°11'9 9.5
2016-Feb-03 10:33N 22°08' E 120°12'  
Track history (hours):
 
Tides and Currents Weather Stations Pressure Air Temp Water Temp Dewpoint Dewpoint Depression Visibility Wind Speed Wind Dir Waves Ship Positions

Cosco Melbourne

Last reported at 2016-Feb-11 04:27 UTC. Time now 2016-Feb-12 05:36 UTC.
Position N 22°13' E 119°59'.

Type: Ship (hazmat cat A). MMSI: 538002366.

Date/timePositionNaut miles runAvg speedWind from/ knotsBaromVisibWave heightAir tempDewpointWater temp
2016-Feb-11 04:27N 22°13' E 119°59'1617.7
2016-Feb-11 03:32N 22°26' E 120°08'1312.9
2016-Feb-11 02:33N 22°33' E 120°20'1 0.6
2016-Feb-11 01:33N 22°32' E 120°20'0 0.0
2016-Feb-11 00:32N 22°32' E 120°20'0 0.0
2016-Feb-10 23:33N 22°32' E 120°20'0 0.0
2016-Feb-10 22:33N 22°32' E 120°20'0 0.0
2016-Feb-10 21:33N 22°32' E 120°20'0 0.0
2016-Feb-10 20:33N 22°32' E 120°20'0 0.0
2016-Feb-10 19:33N 22°32' E 120°20'0 0.0
2016-Feb-10 18:33N 22°32' E 120°20'0 0.0
2016-Feb-10 17:33N 22°32' E 120°20'0 0.0
2016-Feb-10 16:33N 22°32' E 120°20'3 2.6
2016-Feb-10 15:33N 22°33' E 120°17'9 8.9
2016-Feb-10 14:33N 22°37' E 120°09'1818.2
2016-Feb-10 13:33N 22°54' E 120°02'43017.2
2016-Feb-09 12:33N 29°46' E 122°17'10 9.7
2016-Feb-09 11:31N 29°55' E 122°10'1212.6
2016-Feb-09 10:33N 29°58' E 121°56'4 4.1
2016-Feb-09 09:33N 29°56' E 121°52'0 0.0
2016-Feb-09 08:33N 29°56' E 121°52'0 0.0
2016-Feb-09 07:32N 29°56' E 121°52'0 0.0
2016-Feb-09 06:33N 29°56' E 121°52'0 0.0
2016-Feb-09 05:33N 29°56' E 121°52'0 0.0
2016-Feb-09 04:33N 29°56' E 121°52'2 2.1
2016-Feb-09 03:28N 29°57' E 121°54'910.0
2016-Feb-09 02:32N 29°55' E 122°05'1111.2
2016-Feb-09 01:33N 29°48' E 122°15'50 9.9
2016-Feb-08 20:28N 30°26' E 122°53'7011.4
2016-Feb-08 14:21N 31°15' E 121°56'1113.6
2016-Feb-08 13:32N 31°19' E 121°44'4 4.3
2016-Feb-08 12:32N 31°20' E 121°39'0 0.0
2016-Feb-08 11:32N 31°20' E 121°39'0 0.0
2016-Feb-08 10:33N 31°20' E 121°39'0 0.0
2016-Feb-08 09:33N 31°20' E 121°39'0 0.0
2016-Feb-08 08:29N 31°20' E 121°39'0 0.0
2016-Feb-08 07:33N 31°20' E 121°39'0 0.0
2016-Feb-08 06:33N 31°20' E 121°39'0 0.0
2016-Feb-08 05:33N 31°20' E 121°39'0 0.0
2016-Feb-08 04:32N 31°20' E 121°39'0 0.0
2016-Feb-08 03:32N 31°20' E 121°39'0 0.0
2016-Feb-08 02:31N 31°20' E 121°39'0 0.3
2016-Feb-08 01:32N 31°21' E 121°39'8 7.7
2016-Feb-08 00:33N 31°18' E 121°47'1312.7
2016-Feb-07 23:33N 31°15' E 122°02'  
2016-Feb-05 18:04N 30°35' E 123°01'3 6.0
2016-Feb-05 17:33N 30°32' E 123°01'48612.2
2016-Feb-04 01:32N 22°52' E 120°04'1717.0
2016-Feb-04 00:33N 22°37' E 120°11'8 8.0
2016-Feb-03 23:32N 22°33' E 120°19'0 0.0
2016-Feb-03 22:32N 22°33' E 120°19'0 0.0
2016-Feb-03 21:33N 22°33' E 120°19'0 0.1
2016-Feb-03 20:33N 22°33' E 120°19'0 0.1
2016-Feb-03 19:32N 22°33' E 120°19'0 0.0
2016-Feb-03 18:33N 22°33' E 120°19'0 0.0
2016-Feb-03 17:33N 22°33' E 120°19'0 0.0
2016-Feb-03 16:33N 22°33' E 120°19'0 0.0
2016-Feb-03 15:32N 22°33' E 120°19'2 2.4
2016-Feb-03 14:33N 22°33' E 120°17'4 3.9
2016-Feb-03 13:33N 22°31' E 120°13'7 6.4
2016-Feb-03 12:31N 22°24' E 120°13'8 7.4
2016-Feb-03 11:29N 22°16' E 120°11'9 9.5
2016-Feb-03 10:33N 22°08' E 120°12'  

Dump ship's entire track history